Startpagina
METAR-TAF:

METAR-TAF

Vliegvelden :

Anchorage, Alaska, Verenigde Staten

breedte: 61-11N, lengte: 149-58W, hoogte: 22 m

Actueel weer

Dit bericht is 55 minuten geleden gemaakt, om 04:53 UTC
Wind 5 kt uit het noordnoordoosten
Temperatuur 1°C
Vochtigheid 75%
Druk 1005 hPa
Zicht: 16.1 km
Verspreide wolken op 7500 ft
Geheel bewolkt op 12000 ft

METAR: PALH 090453Z 02005KT 10SM SCT075 OVC120 01/M03 A2967 RMK AO2 SLP047 T00111028

Tijdstip: 20:48 (05:48 UTC)


TAF: ontbreekt

Waarnemingen en weersverwachtingen van meer dan 4000 vliegvelden (METAR en TAF).

De beschikbare stations zijn de gele en rode punten op de kaart.

Ga met uw muis naar het station om de naam te zien.

Klik dan om waarnemingen en weersverwachtingen te zien.

kaart wijzigen: klik op de groene knoppen met een zwart kruis om in te zoomen, op de groene knop met een streepje om uit te zoomen of op de groene pijlen voor aangrenzende kaarten.


METAR-TAF: